Live!
Mods LPD-
: - 94,
- 1 [ ra1amw]
 · ·  · · · · · · FAQ   ·
  —› —› ˸ 2021  
Yaesu


Yaesu FT-60R
.

Yaesu VX-3R
.

Yaesu VX-6R
.

Yaesu VX-8DR
.

Yaesu FT-1D
.
 :  1  2  3  »»


Offline6.3
2006
-
: 24084

: 08 2021 16:38:11 #  

Piper PA-28-180 Cherokee RA-2659G -. , Telegram- 112. . Telegram- Baza , , .
- , 47news . , 200-300 .
spbtvmaster

Offline5.2
2006
-
: 1941

: 08 2021 17:24:03 · : spbtvmaster (08 2021 17:25:24) #  

.
.

Google
Konstantin

Offline5.3
2008

: 2778

: 08 2021 17:32:24 #  


Offline1.6
2007

: 268

: 08 2021 17:45:37 #  

.

" ".
Fenix747

Offline1.5
2009
50RS545
: 147

: 08 2021 18:07:08 #  

. () , . . .


Offline6.3
2006
-
: 24084

: 08 2021 18:38:02 #  

()
Fenix747:
Cessna 150 RA-1488G.
john_qkk

Offline3.9
2003
-
: 4294

: 09 2021 14:09:20 #  


Offline6.3
2006
-
: 24084

: 09 2021 16:23:04 #  

: 62 :
: 46
: 7
: 3
: 4
: 2

CNN Indonesia, 737-500 . . . Basarnas. , .
SWRadio36

Offline3.3
2018

: 553

: 09 2021 18:44:35 #  
Corvus

Offline3.2
2003

: 3154

: 11 2021 11:39:01 #  

Boeing 737-524 , , .

15 , , . , , , Detik. 2 , .


https://www.kommersant.ru/doc/4639664
Corvus

Offline3.2
2003

: 3154

: 11 2021 11:43:45 #  


, 14:40 15 ( . ) -70 C. , , , , .

, . , - .

https://www.rbc.ru/society/10/01/2021/5ffb02579a794734e5acc1f8



-70 , , .

, - , , .
Corvus

Offline3.2
2003

: 3154

: 11 2021 11:51:31 #  



WIII 090430Z 28010KT 9999 SCT020 31/24 Q1008 NOSIG
WIII 090500Z 34012KT 6000 VCTS FEW016CB BKN018 28/24 Q1008 TEMPO 5000 -TSRA RMK CB TO NW AND N
WIII 090530Z 35012KT 5000 VCTS -RA FEW016CB BKN018 26/25 Q1007 NOSIG RMK CB TO NW AND N
WIII 090600Z 34010G20KT 5000 VCTS -RA FEW016CB OVC018 26/24 Q1007 NOSIG RMK CB TO W AND NW
WIII 090630Z 34007KT 2000 TSRA FEW016CB OVC018 25/24 Q1007 NOSIG RMK CB OVER THE FIELD
WIII 090700Z 30007KT 4000 VCTS RA FEW016CB OVC018 25/24 Q1007 NOSIG
WIII 090730Z 30006KT 5000 -RA FEW017CB OVC018 25/24 Q1006 NOSIG
WIII 090800Z 28008KT 4000 -RA BKN016 OVC018 26/24 Q1006 NOSIG
WIII 090830Z 29008KT 4000 RA OVC017 25/24 Q1006 NOSIG
WIII 090900Z 29006KT 6000 -RA BKN017 25/23 Q1006 NOSIG


( 07.30) , 5 .
2 .

, , , .


Offline6.3
2006
-
: 24084

: 11 2021 13:13:35 #  

, - ...


Offline6.3
2006
-
: 24084

: 11 2021 20:25:31 #  

- 8 13:30 13:50 123,700 "" ( )?
Corvus

Offline3.2
2003

: 3154

: 13 2021 09:04:03 #  

2020 . , :

" "

https://www.youtube.com/watch?v=igDAFtwPe-s&feature=emb_logo

- " ", , ? . : , , , , . . , . -- , , . .


Offline6.3
2006
-
: 24084

: 22 2021 07:44:19 #  

22 2021 ., AEX.RU -8 , . .

" 10.54 (1.54 ) -8 . 11.30 (2.30 ) ", - . , . .
- , .
AlexRS

Offline2.3
2007
Moscow
: 448

: 22 2021 11:32:25 #  


.


Offline6.3
2006
-
: 24084

: 22 2021 11:51:22 #  

AlexRS:
, .
:)
sicambrA

Offline3.9
2010
LP04
: 175

: 09 2021 17:47:33 · : (09 2021 19:39:50) #  
Corvus

Offline3.2
2003

: 3154

: 13 2021 22:03:21 #  

21 2020 .

https://mak-iac.org/upload/iblock/2a2/report_ra-01917.pdf

Bell-206B-III RA-01917 - , , .

, , :
- , -147;
- Bell-206B-III ( .3.4 -147 );
- ;
- -128 , , , .

( , 1,2 3 ) ( ≈5 , ≈7) -:
- - ;
- - , ( , - );
- , .


:

BELL-206B RA-01917 - .. ( ) .-406
BELL-206B-III RA-01917 , ( UTC): 21.03.2020, 10 45 11 00 (07 45 08 00 UTC), : , : 6832'10" . ., 5525'34" . . :

: BELL-206B-III : RA-01917 : 010465, 26.07.2016 : : BELL HELICOPTER TEXTRON (CANADA), 1994 . (), 4302, 6910, 27.07.2016 , 2012180362, 27.07.2018 , 27.07.2020, , 29.09.2019 2611 , 7867 , , : ROLLS-ROYCE (ALLISON) A250C20R/4, -296035, , 29.09.2019 2611 , 3686 , ,

: , 57 , 0053094, 22.05.2017 - , : BELL206, R44, , 486

: : һ - -2 : һ : -2 , : 1 , , .. : , . , .

: . ( ) , , 30

: 21.03.2020 - . GAMET 100 10 ( ) 21.03.2020 0400 1200 1 : 4000, , , 0500, , ; : - 450 , 060 ; : ; : 600 2 : ; : 280 06 13 /, 19; 300 340 07 /, 15; 600 340 08 /, 13; QNH: 1005 /754 ..
21.03.2020 -2 : 0600 280 05 /, 20 , , 13.1, 14.4, QNH 1004,8 0900 310 04 /, 10 , , 300-600 , 9.3, 10.9, QNH 1007,4, -

: . . Ĩ 07 02 UTC. . 07 44 . , 10 50 , , . . , , .

11 20 λ , RA-01917 , - λ . 14 55 RA01917. -. , . , ,

: : : , . . . 5

: . һ, , . : .
Konstantin

Offline5.3
2008

: 2778

: 13 2021 22:45:09 #  

Corvus
21 2020

. , , ...
sicambrA

Offline3.9
2010
LP04
: 175

: 14 2021 16:28:29 · : (14 2021 17:32:53) #  
DVE

Offline3.8
2006
EU
: 5056

: 20 2021 21:40:50 #  
Olexandr

Offline3.4
2009
/
: 585

: 21 2021 11:15:01 #  
US7IGN

Offline3.5
2006

: 2184

: 21 2021 11:45:28 #  



United Airlines flight suffers engine failure, sending debris falling on neighborhoods outside Denver
muha131

Offline4.4
2004
-
: 2662

: 21 2021 12:08:28 #  

13:08

"".
meteorolog

Offline4.6
2005

: 5725

: 21 2021 22:18:16 · : meteorolog (21 2021 22:34:42) #  

- .
B-Jet.

Beechcraft King Air B350i - .
, , .

Learjet 45XR . .
gusevod

Offline1.7
2015
-
: 281

: 21 2021 22:50:26 · : gusevod (21 2021 22:51:30) #  

United Airlines flight suffers engine failure, sending debris falling on neighborhoods outside Denver

https://youtu.be/sBxe4cQzUIY

https://youtu.be/BGqBw6RHzE4
Pavelectric

Offline5.8
2007
(KO95BN)
: 1200

: 13 2021 16:34:54 · : Pavelectric (13 2021 16:36:07) #  

" 17:20 - -26, - - -.

, - ."
/- /

. , 4 , 2 .
( @new_militarycolumnist)
Corvus

Offline3.2
2003

: 3154

: 13 2021 17:28:09 #  

- . 17:20 (14:20 ), . , - . , - , - Facebook. , , .

10.20 UTC.

METAR UAAA 131000Z 30003MPS 4300 -FZDZ BR OVC004 M02/M02 Q1015 R88/1///60 NOSIG RMK QBB145
METAR UAAA 131030Z 31004MPS 3800 -FZDZ BR OVC003 M02/M02 Q1015 R88/1///60 NOSIG RMK QBB100

( -2) ( , ) .

Google
 :  1  2  3  »» 

.
:: » »
, . Motorola, Yaesu, Vertex, , .
(.): 0.024; miniBB ®